< < Back
Terminal Aerodrome Forecast


Current Version              Previous Versions:   1  2  3  4  5  6  7  8  9  

Terminal Aerodrome Forecast

674
FTUS42 KJAX 272340
TAFGNV
TAF
KGNV 272340Z 2800/2824 00000KT P6SM VCSH FEW030 BKN250
     FM280300 00000KT P6SM FEW020 BKN200
     FM281400 09005KT P6SM SCT030
     FM281800 08006KT P6SM VCTS SCT040CB BKN250=

Latest METAR

806
SAUS70 KWBC 280900 RRJ
MTRGNV
METAR KGNV 280853Z AUTO 07004KT 7SM FEW002 23/22 A2998 RMK AO2 SLP150
T02280217 55002


USA.gov is the U.S. government's official web portal to all federal, state and local government web resources and services.